Time;durP1;ratioP1;P1;durP2;ratioP2;P2;SDS_P1;SDS_P2;PMS_P1;PMS_P2;Temp;Humidity;BMP_temperature;BMP_pressure;BME280_temperature;BME280_humidity;BME280_pressure;Samples;Min_cycle;Max_cycle;Signal;HPM_P1;HPM_P2
2022/09/15 00:00:44;;;;;;;1.70;1.38;;;;;;;;;;5052221;28;20021;-48
2022/09/15 00:03:10;;;;;;;2.70;1.30;;;;;;;;;;5051469;28;20057;-45
2022/09/15 00:05:36;;;;;;;1.08;0.80;;;;;;;;;;5053253;28;20415;-45
2022/09/15 00:08:02;;;;;;;0.70;0.50;;;;;;;;;;5059239;28;20082;-45
2022/09/15 00:10:28;;;;;;;2.13;0.93;;;;;;;;;;5050251;28;20458;-45
2022/09/15 00:12:55;;;;;;;1.60;0.70;;;;;;;;;;5049966;28;20028;-53
2022/09/15 00:15:21;;;;;;;1.02;0.77;;;;;;;;;;5053007;28;20028;-47
2022/09/15 00:17:48;;;;;;;1.73;0.90;;;;;;;;;;5050785;28;20035;-44
2022/09/15 00:20:15;;;;;;;2.83;1.10;;;;;;;;;;5051168;28;20021;-45
2022/09/15 00:22:41;;;;;;;1.42;0.90;;;;;;;;;;5063801;28;20496;-44
2022/09/15 00:25:07;;;;;;;1.10;0.95;;;;;;;;;;5070000;28;20422;-54
2022/09/15 00:27:33;;;;;;;1.80;0.90;;;;;;;;;;5059530;28;20039;-46
2022/09/15 00:30:00;;;;;;;1.50;0.93;;;;;;;;;;5046011;28;20041;-46
2022/09/15 00:32:26;;;;;;;2.08;0.80;;;;;;;;;;5051597;28;20033;-45
2022/09/15 00:34:52;;;;;;;1.15;0.77;;;;;;;;;;5054092;28;20035;-47
2022/09/15 00:37:18;;;;;;;1.10;0.90;;;;;;;;;;5049596;28;20160;-46
2022/09/15 00:39:44;;;;;;;2.83;1.10;;;;;;;;;;5047718;28;20085;-52
2022/09/15 00:42:17;;;;;;;2.92;0.90;;;;;;;;;;5048863;28;20021;-46
2022/09/15 00:44:59;;;;;;;1.73;1.00;;;;;;;;;;5048458;28;20035;-49
2022/09/15 00:47:28;;;;;;;1.02;0.75;;;;;;;;;;5050589;28;20017;-48
2022/09/15 00:50:00;;;;;;;0.90;0.75;;;;;;;;;;5050094;28;20360;-53
2022/09/15 00:52:26;;;;;;;;;;;;;;;;;;5050549;28;20028;-45
2022/09/15 00:54:59;;;;;;;1.27;0.95;;;;;;;;;;5050407;28;19916;-46
2022/09/15 00:57:27;;;;;;;1.05;0.60;;;;;;;;;;5048283;28;20036;-49
2022/09/15 00:59:55;;;;;;;2.47;0.88;;;;;;;;;;5046579;28;20032;-52
2022/09/15 01:02:23;;;;;;;1.13;0.60;;;;;;;;;;5053178;28;20037;-46
2022/09/15 01:04:50;;;;;;;1.98;0.73;;;;;;;;;;5052178;28;20095;-48
2022/09/15 01:07:18;;;;;;;1.20;0.90;;;;;;;;;;5050839;28;20036;-44
2022/09/15 01:09:47;;;;;;;1.48;0.75;;;;;;;;;;5048940;28;20049;-49
2022/09/15 01:12:13;;;;;;;1.60;0.70;;;;;;;;;;5050090;28;20091;-49
2022/09/15 01:14:39;;;;;;;1.50;0.63;;;;;;;;;;5049103;28;20086;-45
2022/09/15 01:17:13;;;;;;;1.67;0.60;;;;;;;;;;5048306;28;20029;-48
2022/09/15 01:19:39;;;;;;;1.73;0.98;;;;;;;;;;5047108;28;20715;-45
2022/09/15 01:22:23;;;;;;;1.02;0.70;;;;;;;;;;5048461;28;20075;-47
2022/09/15 01:25:09;;;;;;;0.80;0.60;;;;;;;;;;5049411;28;20100;-44
2022/09/15 01:27:54;;;;;;;1.30;0.70;;;;;;;;;;5054165;28;20078;-47
2022/09/15 01:30:21;;;;;;;1.90;1.20;;;;;;;;;;5050541;28;20033;-50
2022/09/15 01:33:11;;;;;;;1.17;0.80;;;;;;;;;;5048423;28;20029;-45
2022/09/15 01:35:48;;;;;;;0.70;0.70;;;;;;;;;;5051588;28;20036;-45
2022/09/15 01:38:29;;;;;;;1.02;0.75;;;;;;;;;;5048210;28;20112;-45
2022/09/15 01:40:59;;;;;;;2.87;0.97;;;;;;;;;;5052306;28;20025;-53
2022/09/15 01:43:28;;;;;;;3.28;1.10;;;;;;;;;;5052108;28;20021;-45
2022/09/15 01:45:54;;;;;;;2.03;0.90;;;;;;;;;;5048539;28;20029;-53
2022/09/15 01:48:22;;;;;;;0.73;0.73;;;;;;;;;;5048002;28;20067;-48
2022/09/15 01:50:50;;;;;;;1.10;0.70;;;;;;;;;;5052008;28;20036;-44
2022/09/15 01:53:19;;;;;;;2.60;0.85;;;;;;;;;;5052322;28;20025;-45
2022/09/15 01:55:53;;;;;;;0.88;0.77;;;;;;;;;;5057155;28;20378;-45
2022/09/15 01:58:19;;;;;;;0.77;0.75;;;;;;;;;;5051469;28;20104;-49
2022/09/15 02:00:48;;;;;;;1.05;0.65;;;;;;;;;;5054549;28;20465;-45
2022/09/15 02:03:18;;;;;;;0.68;0.65;;;;;;;;;;5050247;28;20049;-47
2022/09/15 02:05:48;;;;;;;1.85;0.85;;;;;;;;;;5051048;28;20036;-45
2022/09/15 02:08:32;;;;;;;2.80;0.80;;;;;;;;;;5054582;28;20024;-45
2022/09/15 02:11:11;;;;;;;1.17;0.90;;;;;;;;;;5049676;28;20104;-52
2022/09/15 02:13:38;;;;;;;1.65;0.70;;;;;;;;;;5052740;28;20111;-45
2022/09/15 02:16:09;;;;;;;3.80;0.80;;;;;;;;;;5050315;28;20553;-46
2022/09/15 02:18:35;;;;;;;0.75;0.47;;;;;;;;;;5053672;28;20056;-45
2022/09/15 02:21:06;;;;;;;1.60;0.90;;;;;;;;;;5053222;28;20598;-46
2022/09/15 02:23:36;;;;;;;1.27;0.77;;;;;;;;;;5052388;28;20489;-46
2022/09/15 02:26:07;;;;;;;2.35;0.80;;;;;;;;;;5052610;28;20128;-45
2022/09/15 02:28:36;;;;;;;2.22;0.90;;;;;;;;;;5052318;28;20028;-44
2022/09/15 02:31:03;;;;;;;2.47;0.73;;;;;;;;;;5054541;28;20517;-45
2022/09/15 02:33:38;;;;;;;1.73;0.88;;;;;;;;;;5051780;28;20021;-45
2022/09/15 02:36:04;;;;;;;1.42;0.75;;;;;;;;;;5048962;28;20032;-44
2022/09/15 02:38:33;;;;;;;2.85;0.68;;;;;;;;;;5049750;28;20040;-48
2022/09/15 02:41:00;;;;;;;1.48;0.90;;;;;;;;;;5053402;28;20062;-49
2022/09/15 02:43:26;;;;;;;1.15;0.70;;;;;;;;;;5053215;28;20470;-44
2022/09/15 02:45:53;;;;;;;1.08;0.60;;;;;;;;;;5052591;28;20509;-44
2022/09/15 02:48:19;;;;;;;1.95;0.88;;;;;;;;;;5053799;28;20036;-45
2022/09/15 02:50:45;;;;;;;2.17;0.68;;;;;;;;;;5072527;28;20373;-45
2022/09/15 02:53:11;;;;;;;1.05;0.63;;;;;;;;;;5066444;28;20112;-45
2022/09/15 02:55:37;;;;;;;1.27;0.85;;;;;;;;;;5072783;28;20462;-49
2022/09/15 02:58:03;;;;;;;1.13;0.52;;;;;;;;;;5070918;28;20029;-45
2022/09/15 03:00:29;;;;;;;1.75;0.70;;;;;;;;;;5055996;28;20040;-45
2022/09/15 03:02:56;;;;;;;1.25;0.77;;;;;;;;;;5048312;28;20075;-53
2022/09/15 03:05:26;;;;;;;1.05;0.60;;;;;;;;;;5052842;28;20083;-45
2022/09/15 03:07:52;;;;;;;1.40;1.02;;;;;;;;;;5053812;28;20029;-50
2022/09/15 03:10:19;;;;;;;1.88;0.60;;;;;;;;;;5051673;28;20077;-46
2022/09/15 03:12:46;;;;;;;0.80;0.63;;;;;;;;;;5053228;28;20356;-46
2022/09/15 03:15:13;;;;;;;2.30;0.70;;;;;;;;;;5051152;28;20428;-47
2022/09/15 03:17:40;;;;;;;1.15;0.70;;;;;;;;;;5054269;28;20024;-45
2022/09/15 03:20:07;;;;;;;1.00;0.90;;;;;;;;;;5059767;28;20550;-47
2022/09/15 03:22:33;;;;;;;0.98;0.75;;;;;;;;;;5052616;28;20029;-45
2022/09/15 03:25:00;;;;;;;0.60;0.50;;;;;;;;;;5048115;28;20025;-53
2022/09/15 03:27:26;;;;;;;1.17;0.68;;;;;;;;;;5050589;28;20033;-45
2022/09/15 03:29:52;;;;;;;1.38;0.70;;;;;;;;;;5052746;28;20037;-45
2022/09/15 03:32:18;;;;;;;0.50;0.47;;;;;;;;;;5052213;28;20482;-45
2022/09/15 03:34:44;;;;;;;2.00;1.00;;;;;;;;;;5052550;28;20061;-45
2022/09/15 03:37:10;;;;;;;1.20;0.68;;;;;;;;;;5051701;28;20391;-47
2022/09/15 03:39:36;;;;;;;0.85;0.70;;;;;;;;;;5052669;28;20081;-49
2022/09/15 03:42:02;;;;;;;2.40;0.90;;;;;;;;;;5061721;28;20032;-45
2022/09/15 03:44:28;;;;;;;0.95;0.63;;;;;;;;;;5064171;28;20029;-47
2022/09/15 03:46:54;;;;;;;2.33;0.80;;;;;;;;;;5052658;28;20626;-45
2022/09/15 03:49:21;;;;;;;1.10;0.68;;;;;;;;;;5064979;28;20041;-45
2022/09/15 03:51:47;;;;;;;1.25;0.60;;;;;;;;;;5071552;28;20032;-48
2022/09/15 03:54:12;;;;;;;2.05;1.00;;;;;;;;;;5056366;28;20508;-44
2022/09/15 03:56:38;;;;;;;1.30;0.70;;;;;;;;;;5057146;28;20047;-46
2022/09/15 03:59:06;;;;;;;0.75;0.40;;;;;;;;;;5050062;28;20025;-45
2022/09/15 04:01:32;;;;;;;1.15;0.70;;;;;;;;;;5052297;28;20060;-45
2022/09/15 04:03:59;;;;;;;4.90;0.80;;;;;;;;;;5052225;28;20033;-53
2022/09/15 04:06:25;;;;;;;0.70;0.60;;;;;;;;;;5052703;28;20032;-49
2022/09/15 04:08:52;;;;;;;1.40;0.63;;;;;;;;;;5053187;28;20079;-51
2022/09/15 04:11:19;;;;;;;2.85;0.57;;;;;;;;;;5049481;28;20021;-48
2022/09/15 04:13:45;;;;;;;4.20;1.00;;;;;;;;;;5043761;28;20025;-48
2022/09/15 04:16:15;;;;;;;0.85;0.60;;;;;;;;;;5050280;28;20025;-48
2022/09/15 04:18:41;;;;;;;2.65;1.00;;;;;;;;;;5049893;28;20061;-44
2022/09/15 04:21:08;;;;;;;0.65;0.50;;;;;;;;;;5050002;28;20056;-44
2022/09/15 04:23:34;;;;;;;1.30;0.50;;;;;;;;;;5051516;28;20025;-45
2022/09/15 04:26:02;;;;;;;1.45;0.50;;;;;;;;;;5051165;28;20108;-54
2022/09/15 04:28:31;;;;;;;0.70;0.55;;;;;;;;;;5049284;28;20025;-45
2022/09/15 04:31:07;;;;;;;0.73;0.50;;;;;;;;;;5045424;28;20092;-46
2022/09/15 04:33:34;;;;;;;2.10;0.68;;;;;;;;;;5050023;28;20025;-48
2022/09/15 04:36:05;;;;;;;0.95;0.63;;;;;;;;;;5051700;28;20158;-51
2022/09/15 04:38:31;;;;;;;1.88;0.55;;;;;;;;;;5050946;28;20031;-49
2022/09/15 04:40:57;;;;;;;1.48;0.65;;;;;;;;;;5050749;28;20374;-46
2022/09/15 04:43:24;;;;;;;0.73;0.52;;;;;;;;;;5048694;28;20040;-45
2022/09/15 04:45:50;;;;;;;1.27;0.60;;;;;;;;;;5046574;28;20021;-46
2022/09/15 04:48:16;;;;;;;1.27;0.70;;;;;;;;;;5050120;28;20033;-47
2022/09/15 04:50:42;;;;;;;0.57;0.40;;;;;;;;;;5050388;28;20053;-45
2022/09/15 04:53:08;;;;;;;1.27;0.65;;;;;;;;;;5049408;28;20036;-47
2022/09/15 04:55:35;;;;;;;0.70;0.60;;;;;;;;;;5049800;28;20462;-48
2022/09/15 04:58:01;;;;;;;2.28;0.70;;;;;;;;;;5048212;28;20462;-53
2022/09/15 05:00:28;;;;;;;2.00;0.70;;;;;;;;;;5050382;28;20552;-45
2022/09/15 05:02:54;;;;;;;0.90;0.60;;;;;;;;;;5050198;28;20025;-45
2022/09/15 05:05:20;;;;;;;1.65;0.80;;;;;;;;;;5050233;28;20437;-44
2022/09/15 05:07:49;;;;;;;1.30;0.80;;;;;;;;;;5051272;28;20029;-46
2022/09/15 05:10:15;;;;;;;3.70;0.88;;;;;;;;;;5050633;28;20056;-45
2022/09/15 05:12:41;;;;;;;3.03;0.73;;;;;;;;;;5050507;28;20060;-45
2022/09/15 05:15:07;;;;;;;6.13;1.55;;;;;;;;;;5050055;28;20021;-49
2022/09/15 05:17:33;;;;;;;4.90;1.50;;;;;;;;;;5050973;28;20049;-48
2022/09/15 05:19:59;;;;;;;1.70;1.20;;;;;;;;;;5049767;28;20063;-49
2022/09/15 05:22:26;;;;;;;1.40;0.50;;;;;;;;;;5050617;28;20914;-49
2022/09/15 05:24:52;;;;;;;1.27;0.60;;;;;;;;;;5050062;28;20401;-46
2022/09/15 05:27:18;;;;;;;1.00;0.68;;;;;;;;;;5054143;28;20028;-46
2022/09/15 05:29:44;;;;;;;1.88;0.68;;;;;;;;;;5054346;28;20562;-49
2022/09/15 05:32:10;;;;;;;2.72;0.77;;;;;;;;;;5045665;28;20032;-48
2022/09/15 05:34:36;;;;;;;1.80;0.60;;;;;;;;;;5045148;28;20029;-45
2022/09/15 05:37:02;;;;;;;2.35;0.60;;;;;;;;;;5046199;28;20543;-49
2022/09/15 05:39:28;;;;;;;3.70;0.70;;;;;;;;;;5047221;28;20025;-47
2022/09/15 05:41:54;;;;;;;2.03;0.50;;;;;;;;;;5056332;28;20022;-45
2022/09/15 05:44:20;;;;;;;0.82;0.43;;;;;;;;;;5048862;28;20052;-45
2022/09/15 05:46:46;;;;;;;1.58;0.60;;;;;;;;;;5045479;28;20029;-50
2022/09/15 05:49:12;;;;;;;1.63;0.90;;;;;;;;;;5055101;28;20029;-48
2022/09/15 05:51:38;;;;;;;0.77;0.47;;;;;;;;;;5051997;28;20025;-46
2022/09/15 05:54:04;;;;;;;2.97;0.70;;;;;;;;;;5054320;28;20279;-46
2022/09/15 05:56:31;;;;;;;0.65;0.60;;;;;;;;;;5043208;28;20021;-50
2022/09/15 05:58:57;;;;;;;1.92;0.50;;;;;;;;;;5052911;28;20056;-46
2022/09/15 06:01:24;;;;;;;2.13;1.42;;;;;;;;;;5050281;28;20021;-48
2022/09/15 06:03:50;;;;;;;0.60;0.50;;;;;;;;;;5053411;28;20103;-48
2022/09/15 06:06:16;;;;;;;1.77;0.60;;;;;;;;;;5055637;28;20512;-45
2022/09/15 06:08:44;;;;;;;2.85;0.40;;;;;;;;;;5053790;28;20052;-48
2022/09/15 06:11:11;;;;;;;1.10;0.50;;;;;;;;;;5047644;28;20029;-45
2022/09/15 06:13:38;;;;;;;0.85;0.55;;;;;;;;;;5054114;28;20075;-45
2022/09/15 06:16:05;;;;;;;0.52;0.50;;;;;;;;;;5054133;28;20045;-50
2022/09/15 06:18:32;;;;;;;1.58;0.75;;;;;;;;;;5048041;28;20029;-49
2022/09/15 06:21:02;;;;;;;0.35;0.35;;;;;;;;;;5051587;28;20099;-45
2022/09/15 06:23:28;;;;;;;0.75;0.40;;;;;;;;;;5051733;28;20472;-45
2022/09/15 06:25:54;;;;;;;0.98;0.70;;;;;;;;;;5053773;28;20029;-46
2022/09/15 06:28:20;;;;;;;1.38;0.68;;;;;;;;;;5053036;28;20056;-46
2022/09/15 06:30:48;;;;;;;1.38;0.40;;;;;;;;;;5052589;28;20025;-45
2022/09/15 06:33:14;;;;;;;0.82;0.40;;;;;;;;;;5051997;28;20021;-47
2022/09/15 06:35:40;;;;;;;0.88;0.52;;;;;;;;;;5053845;28;20029;-45
2022/09/15 06:38:07;;;;;;;0.60;0.40;;;;;;;;;;5052354;28;20032;-54
2022/09/15 06:40:33;;;;;;;0.80;0.57;;;;;;;;;;5051576;28;20039;-46
2022/09/15 06:42:59;;;;;;;1.38;0.60;;;;;;;;;;5052613;28;20100;-45
2022/09/15 06:45:25;;;;;;;2.42;1.02;;;;;;;;;;5045876;28;20039;-48
2022/09/15 06:47:51;;;;;;;0.40;0.30;;;;;;;;;;5043021;28;20718;-49
2022/09/15 06:50:17;;;;;;;1.00;0.40;;;;;;;;;;5052592;28;20032;-47
2022/09/15 06:52:44;;;;;;;0.85;0.50;;;;;;;;;;5052742;28;20017;-45
2022/09/15 06:55:10;;;;;;;1.15;0.50;;;;;;;;;;5047900;28;20033;-46
2022/09/15 06:57:36;;;;;;;1.55;0.50;;;;;;;;;;5057758;28;20078;-45
2022/09/15 07:00:02;;;;;;;0.60;0.50;;;;;;;;;;5061986;28;20452;-45
2022/09/15 07:02:28;;;;;;;0.88;0.50;;;;;;;;;;5052000;28;20025;-45
2022/09/15 07:04:54;;;;;;;2.53;0.50;;;;;;;;;;5053211;28;20355;-45
2022/09/15 07:07:20;;;;;;;3.67;0.77;;;;;;;;;;5052423;28;20032;-48
2022/09/15 07:09:46;;;;;;;0.52;0.40;;;;;;;;;;5052816;28;20059;-45
2022/09/15 07:12:12;;;;;;;0.63;0.63;;;;;;;;;;5048060;28;20416;-46
2022/09/15 07:14:38;;;;;;;2.53;0.50;;;;;;;;;;5041569;28;20021;-47
2022/09/15 07:17:04;;;;;;;0.73;0.45;;;;;;;;;;5052774;28;20028;-46
2022/09/15 07:19:30;;;;;;;0.90;0.30;;;;;;;;;;5051614;28;20145;-48
2022/09/15 07:21:56;;;;;;;0.90;0.40;;;;;;;;;;5052782;28;20029;-45
2022/09/15 07:24:22;;;;;;;1.88;0.40;;;;;;;;;;5051778;28;20094;-51
2022/09/15 07:26:48;;;;;;;1.55;0.60;;;;;;;;;;5054803;28;20032;-45
2022/09/15 07:29:14;;;;;;;1.13;0.50;;;;;;;;;;5052493;28;20545;-51
2022/09/15 07:31:40;;;;;;;6.15;0.60;;;;;;;;;;5037614;28;20474;-48
2022/09/15 07:34:07;;;;;;;1.20;0.60;;;;;;;;;;5051240;28;20051;-47
2022/09/15 07:36:33;;;;;;;1.63;0.40;;;;;;;;;;5052078;28;20021;-46
2022/09/15 07:38:59;;;;;;;1.65;0.50;;;;;;;;;;5052351;28;20027;-50
2022/09/15 07:41:28;;;;;;;0.80;0.50;;;;;;;;;;5052041;28;20103;-45
2022/09/15 07:43:56;;;;;;;0.93;0.60;;;;;;;;;;5052031;28;20405;-46
2022/09/15 07:46:22;;;;;;;1.23;0.70;;;;;;;;;;5050148;28;20029;-47
2022/09/15 07:48:49;;;;;;;1.17;0.60;;;;;;;;;;5051985;28;20072;-45
2022/09/15 07:51:16;;;;;;;2.75;0.70;;;;;;;;;;5051565;28;20070;-49
2022/09/15 07:53:42;;;;;;;1.85;0.55;;;;;;;;;;5054007;28;20025;-48
2022/09/15 07:56:09;;;;;;;1.20;0.50;;;;;;;;;;5052229;28;20351;-54
2022/09/15 07:58:35;;;;;;;1.85;0.60;;;;;;;;;;5051851;28;20043;-45
2022/09/15 08:01:05;;;;;;;1.48;0.50;;;;;;;;;;5052357;28;20029;-48
2022/09/15 08:03:31;;;;;;;3.15;0.47;;;;;;;;;;5046322;28;20497;-47
2022/09/15 08:05:58;;;;;;;1.27;0.50;;;;;;;;;;5052020;28;20094;-51
2022/09/15 08:08:24;;;;;;;1.02;0.60;;;;;;;;;;5066861;28;20469;-46
2022/09/15 08:10:50;;;;;;;0.70;0.50;;;;;;;;;;5066705;28;20100;-46
2022/09/15 08:13:16;;;;;;;0.52;0.50;;;;;;;;;;5051346;28;20017;-46
2022/09/15 08:15:42;;;;;;;0.80;0.40;;;;;;;;;;5051978;28;20413;-45
2022/09/15 08:18:08;;;;;;;1.90;0.50;;;;;;;;;;5052187;28;20027;-49
2022/09/15 08:20:37;;;;;;;1.05;0.50;;;;;;;;;;5037208;28;20369;-46
2022/09/15 08:23:03;;;;;;;0.60;0.60;;;;;;;;;;5052106;28;20032;-45
2022/09/15 08:25:29;;;;;;;0.65;0.50;;;;;;;;;;5050752;28;20526;-49
2022/09/15 08:27:55;;;;;;;1.23;0.50;;;;;;;;;;5051584;28;20024;-45
2022/09/15 08:30:22;;;;;;;4.30;0.60;;;;;;;;;;5050560;28;20037;-45
2022/09/15 08:32:48;;;;;;;1.85;0.52;;;;;;;;;;5051478;28;20549;-46
2022/09/15 08:35:14;;;;;;;3.13;0.50;;;;;;;;;;5050937;28;20107;-47
2022/09/15 08:37:40;;;;;;;1.95;0.50;;;;;;;;;;5046582;28;20028;-46
2022/09/15 08:40:07;;;;;;;1.83;0.52;;;;;;;;;;5051340;28;20025;-45
2022/09/15 08:42:33;;;;;;;0.70;0.45;;;;;;;;;;5058215;28;20195;-45
2022/09/15 08:45:06;;;;;;;1.15;0.60;;;;;;;;;;5051437;28;20016;-46
2022/09/15 08:47:37;;;;;;;0.80;0.50;;;;;;;;;;5050396;28;20025;-45
2022/09/15 08:50:06;;;;;;;0.73;0.50;;;;;;;;;;5056586;28;20028;-45
2022/09/15 08:52:51;;;;;;;1.35;0.52;;;;;;;;;;5051267;28;20021;-48
2022/09/15 08:55:20;;;;;;;0.43;0.40;;;;;;;;;;5039685;28;20025;-47
2022/09/15 08:57:46;;;;;;;1.25;0.70;;;;;;;;;;5050864;28;20021;-46
2022/09/15 09:00:15;;;;;;;0.82;0.35;;;;;;;;;;5051877;28;20434;-52
2022/09/15 09:02:51;;;;;;;0.40;0.40;;;;;;;;;;5055732;28;20017;-46
2022/09/15 09:05:29;;;;;;;0.82;0.47;;;;;;;;;;5054814;28;20018;-46
2022/09/15 09:07:58;;;;;;;0.75;0.47;;;;;;;;;;5055625;28;20013;-46
2022/09/15 09:10:24;;;;;;;1.35;0.57;;;;;;;;;;5058099;28;20395;-46
2022/09/15 09:12:50;;;;;;;0.60;0.35;;;;;;;;;;5055697;28;20017;-46
2022/09/15 09:15:39;;;;;;;1.35;0.57;;;;;;;;;;5054537;28;20056;-50
2022/09/15 09:18:06;;;;;;;0.50;0.30;;;;;;;;;;5055559;28;20021;-46
2022/09/15 09:20:32;;;;;;;0.50;0.50;;;;;;;;;;5054336;28;20840;-49
2022/09/15 09:23:00;;;;;;;0.68;0.40;;;;;;;;;;5055531;28;20013;-45
2022/09/15 09:25:26;;;;;;;0.50;0.50;;;;;;;;;;5054272;28;20112;-45
2022/09/15 09:27:53;;;;;;;0.95;0.40;;;;;;;;;;5050735;28;20513;-46
2022/09/15 09:30:20;;;;;;;1.27;0.75;;;;;;;;;;5049003;28;20033;-45
2022/09/15 09:32:49;;;;;;;1.23;0.60;;;;;;;;;;5054465;28;20374;-50
2022/09/15 09:35:15;;;;;;;0.93;0.82;;;;;;;;;;5046587;28;20037;-56
2022/09/15 09:37:41;;;;;;;1.77;0.40;;;;;;;;;;5054977;28;20025;-46
2022/09/15 09:40:12;;;;;;;0.65;0.50;;;;;;;;;;5052871;28;20541;-46
2022/09/15 09:42:38;;;;;;;1.17;0.47;;;;;;;;;;5040336;28;20025;-54
2022/09/15 09:45:06;;;;;;;1.20;0.70;;;;;;;;;;5044788;28;20058;-47
2022/09/15 09:47:33;;;;;;;1.17;0.60;;;;;;;;;;5050005;28;20406;-46
2022/09/15 09:50:00;;;;;;;0.60;0.40;;;;;;;;;;5054431;28;20033;-51
2022/09/15 09:52:38;;;;;;;1.58;0.40;;;;;;;;;;5054005;28;20029;-50
2022/09/15 09:55:22;;;;;;;2.10;0.47;;;;;;;;;;5042266;28;20017;-50
2022/09/15 09:57:48;;;;;;;0.85;0.43;;;;;;;;;;5054642;28;20107;-46
2022/09/15 10:00:23;;;;;;;0.52;0.38;;;;;;;;;;5054209;28;20423;-54
2022/09/15 10:02:49;;;;;;;0.20;0.20;;;;;;;;;;5054466;28;20060;-47
2022/09/15 10:05:19;;;;;;;0.40;0.30;;;;;;;;;;5053718;28;20060;-54
2022/09/15 10:07:46;;;;;;;0.57;0.50;;;;;;;;;;5054356;28;20384;-49
2022/09/15 10:10:38;;;;;;;0.75;0.50;;;;;;;;;;5053535;28;20049;-47
2022/09/15 10:13:04;;;;;;;1.77;0.50;;;;;;;;;;5038900;28;20044;-46
2022/09/15 10:15:32;;;;;;;1.95;0.55;;;;;;;;;;5042482;28;20021;-47
2022/09/15 10:17:58;;;;;;;2.88;1.10;;;;;;;;;;5042281;28;20095;-46
2022/09/15 10:20:37;;;;;;;7.13;1.92;;;;;;;;;;5048627;28;20033;-46
2022/09/15 10:23:03;;;;;;;6.55;1.77;;;;;;;;;;5041842;28;20025;-45
2022/09/15 10:25:31;;;;;;;10.48;2.50;;;;;;;;;;5042373;28;20090;-46
2022/09/15 10:28:12;;;;;;;8.80;2.30;;;;;;;;;;5048986;28;20017;-45
2022/09/15 10:30:39;;;;;;;7.38;2.35;;;;;;;;;;5021553;28;20036;-45
2022/09/15 10:33:19;;;;;;;3.70;1.42;;;;;;;;;;5046767;28;20036;-45
2022/09/15 10:35:45;;;;;;;6.65;1.50;;;;;;;;;;5026760;28;20476;-48
2022/09/15 10:38:14;;;;;;;3.30;1.05;;;;;;;;;;5051243;28;20382;-47
2022/09/15 10:40:50;;;;;;;3.83;1.58;;;;;;;;;;5037289;28;20056;-47
2022/09/15 10:43:23;;;;;;;3.13;1.15;;;;;;;;;;5044160;28;20029;-56
2022/09/15 10:45:50;;;;;;;5.35;1.10;;;;;;;;;;5047804;28;20032;-50
2022/09/15 10:48:31;;;;;;;2.20;0.77;;;;;;;;;;5036903;28;20029;-54
2022/09/15 10:51:16;;;;;;;2.15;1.10;;;;;;;;;;5047157;28;20400;-50
2022/09/15 10:53:42;;;;;;;3.03;0.90;;;;;;;;;;5041125;28;20025;-45
2022/09/15 10:56:26;;;;;;;1.27;0.75;;;;;;;;;;5037295;28;20043;-48
2022/09/15 10:58:54;;;;;;;2.63;0.93;;;;;;;;;;5022428;28;20101;-48
2022/09/15 11:01:23;;;;;;;2.55;0.70;;;;;;;;;;5039207;28;20033;-49
2022/09/15 11:04:08;;;;;;;2.75;0.88;;;;;;;;;;5050225;28;20029;-48
2022/09/15 11:06:48;;;;;;;2.00;0.70;;;;;;;;;;5045894;28;20030;-46
2022/09/15 11:09:19;;;;;;;0.98;0.60;;;;;;;;;;5028792;28;20052;-47
2022/09/15 11:12:07;;;;;;;4.03;0.87;;;;;;;;;;5026641;28;20406;-45
2022/09/15 11:14:39;;;;;;;2.30;0.80;;;;;;;;;;5032337;28;20017;-46
2022/09/15 11:17:14;;;;;;;2.13;0.90;;;;;;;;;;5040393;28;20109;-47
2022/09/15 11:19:43;;;;;;;2.33;1.23;;;;;;;;;;5040144;28;20033;-49
2022/09/15 11:22:22;;;;;;;1.52;0.75;;;;;;;;;;5032630;28;20416;-47
2022/09/15 11:24:49;;;;;;;2.08;0.77;;;;;;;;;;5018216;28;20079;-46
2022/09/15 11:27:25;;;;;;;2.03;0.90;;;;;;;;;;5028579;28;20032;-47
2022/09/15 11:29:51;;;;;;;1.95;1.02;;;;;;;;;;5032896;28;20120;-46
2022/09/15 11:32:21;;;;;;;1.48;0.60;;;;;;;;;;5033193;28;20056;-53
2022/09/15 11:34:57;;;;;;;4.25;0.73;;;;;;;;;;5033267;28;20025;-49
2022/09/15 11:37:32;;;;;;;2.10;0.82;;;;;;;;;;5031967;28;20490;-48
2022/09/15 11:40:03;;;;;;;1.00;0.70;;;;;;;;;;5024262;28;20058;-45
2022/09/15 11:42:34;;;;;;;1.43;0.77;;;;;;;;;;5032076;28;20475;-46
2022/09/15 11:45:02;;;;;;;1.98;0.77;;;;;;;;;;5032557;28;20417;-46
2022/09/15 11:47:30;;;;;;;2.88;0.73;;;;;;;;;;5031805;28;20022;-46
2022/09/15 11:49:59;;;;;;;2.45;0.82;;;;;;;;;;5032655;28;20037;-50
2022/09/15 11:52:43;;;;;;;1.67;0.80;;;;;;;;;;5031442;28;20383;-46
2022/09/15 11:55:21;;;;;;;1.60;0.60;;;;;;;;;;5032552;28;20032;-47
2022/09/15 11:57:52;;;;;;;1.45;0.88;;;;;;;;;;5032344;28;20374;-47
2022/09/15 12:00:20;;;;;;;1.20;0.60;;;;;;;;;;5026656;28;20360;-54
2022/09/15 12:02:50;;;;;;;2.05;1.00;;;;;;;;;;5032393;28;20443;-45
2022/09/15 12:05:31;;;;;;;1.35;0.65;;;;;;;;;;5032365;28;20025;-50
2022/09/15 12:08:18;;;;;;;1.17;0.70;;;;;;;;;;5032254;28;20021;-45
2022/09/15 12:10:51;;;;;;;1.10;0.80;;;;;;;;;;5035821;28;20044;-46
2022/09/15 12:13:23;;;;;;;1.42;0.80;;;;;;;;;;5055656;28;20124;-54
2022/09/15 12:15:49;;;;;;;1.38;0.73;;;;;;;;;;5051896;28;20024;-45
2022/09/15 12:18:34;;;;;;;2.22;1.10;;;;;;;;;;5048700;28;20104;-46
2022/09/15 12:21:05;;;;;;;4.30;1.00;;;;;;;;;;5051876;28;20411;-47
2022/09/15 12:23:43;;;;;;;1.45;0.90;;;;;;;;;;5042435;28;20028;-47
2022/09/15 12:26:15;;;;;;;1.65;0.60;;;;;;;;;;5052082;28;20025;-46
2022/09/15 12:28:41;;;;;;;;;;;;;;;;;;5043501;28;20025;-46
2022/09/15 12:31:22;;;;;;;1.83;0.70;;;;;;;;;;5051561;28;19908;-45
2022/09/15 12:34:03;;;;;;;1.73;1.00;;;;;;;;;;5051393;28;20025;-49
2022/09/15 12:36:30;;;;;;;3.13;1.73;;;;;;;;;;5049981;28;20655;-46
2022/09/15 12:38:57;;;;;;;2.55;0.70;;;;;;;;;;5052969;28;20283;-48
2022/09/15 12:41:23;;;;;;;0.93;0.63;;;;;;;;;;5052892;28;20021;-50
2022/09/15 12:43:57;;;;;;;2.05;0.70;;;;;;;;;;5066816;28;20033;-47
2022/09/15 12:46:24;;;;;;;1.48;0.80;;;;;;;;;;5051819;28;20100;-51
2022/09/15 12:48:50;;;;;;;1.60;0.80;;;;;;;;;;5059537;28;20036;-47
2022/09/15 12:51:27;;;;;;;1.02;0.60;;;;;;;;;;5044533;28;20026;-46
2022/09/15 12:53:54;;;;;;;1.48;0.80;;;;;;;;;;5051562;28;20079;-47
2022/09/15 12:56:23;;;;;;;1.63;0.80;;;;;;;;;;5046464;28;20049;-54
2022/09/15 12:58:49;;;;;;;3.03;1.05;;;;;;;;;;5051549;28;20017;-46
2022/09/15 13:01:18;;;;;;;1.90;0.60;;;;;;;;;;5051588;28;20029;-47
2022/09/15 13:03:44;;;;;;;1.58;0.90;;;;;;;;;;5050574;28;20032;-47
2022/09/15 13:06:24;;;;;;;1.23;0.80;;;;;;;;;;5051502;28;20108;-50
2022/09/15 13:09:04;;;;;;;1.55;0.80;;;;;;;;;;5050444;28;20159;-48
2022/09/15 13:11:35;;;;;;;1.25;0.70;;;;;;;;;;5050566;28;20048;-46
2022/09/15 13:14:09;;;;;;;1.23;0.82;;;;;;;;;;5051228;28;20033;-46
2022/09/15 13:16:45;;;;;;;1.00;0.90;;;;;;;;;;5050379;28;20163;-45
2022/09/15 13:19:29;;;;;;;1.17;0.82;;;;;;;;;;5051251;28;20044;-50
2022/09/15 13:22:07;;;;;;;2.67;0.80;;;;;;;;;;5051112;28;20032;-46
2022/09/15 13:24:42;;;;;;;1.95;1.20;;;;;;;;;;5049868;28;20074;-46
2022/09/15 13:27:08;;;;;;;2.60;0.80;;;;;;;;;;5043967;28;20021;-47
2022/09/15 13:29:45;;;;;;;2.10;0.85;;;;;;;;;;5043113;28;20018;-45
2022/09/15 13:32:17;;;;;;;1.58;0.60;;;;;;;;;;5028396;28;20033;-45
2022/09/15 13:35:04;;;;;;;1.58;1.08;;;;;;;;;;5048339;28;20025;-47
2022/09/15 13:37:47;;;;;;;1.75;1.25;;;;;;;;;;5046225;28;20021;-45
2022/09/15 13:40:28;;;;;;;1.52;0.90;;;;;;;;;;5036368;28;20100;-50
2022/09/15 13:43:06;;;;;;;2.10;1.23;;;;;;;;;;5050729;28;20400;-45
2022/09/15 13:45:39;;;;;;;2.00;1.00;;;;;;;;;;5050138;28;20036;-46
2022/09/15 13:48:23;;;;;;;1.42;0.80;;;;;;;;;;5038607;28;20108;-48
2022/09/15 13:50:58;;;;;;;2.03;0.95;;;;;;;;;;5054588;28;20099;-46
2022/09/15 13:53:41;;;;;;;2.70;0.77;;;;;;;;;;5053274;28;20423;-53
2022/09/15 13:56:08;;;;;;;3.33;0.75;;;;;;;;;;5039274;28;20101;-47
2022/09/15 13:58:34;;;;;;;2.20;0.95;;;;;;;;;;5053679;28;20035;-49
2022/09/15 14:01:01;;;;;;;2.38;1.15;;;;;;;;;;5053985;28;20037;-47
2022/09/15 14:03:42;;;;;;;1.83;0.88;;;;;;;;;;5053680;28;20074;-49
2022/09/15 14:06:11;;;;;;;4.25;0.90;;;;;;;;;;5046379;28;20490;-45
2022/09/15 14:08:37;;;;;;;1.17;0.60;;;;;;;;;;5053738;28;20035;-45
2022/09/15 14:11:07;;;;;;;3.47;0.90;;;;;;;;;;5053958;28;20033;-45
2022/09/15 14:13:34;;;;;;;1.00;0.63;;;;;;;;;;5053537;28;20057;-45
2022/09/15 14:16:05;;;;;;;3.30;0.80;;;;;;;;;;5053657;28;20036;-46
2022/09/15 14:18:40;;;;;;;1.52;0.80;;;;;;;;;;5053069;28;20513;-46
2022/09/15 14:21:06;;;;;;;1.83;0.80;;;;;;;;;;5054249;28;20059;-47
2022/09/15 14:23:32;;;;;;;2.90;0.80;;;;;;;;;;5053088;28;20045;-45
2022/09/15 14:25:59;;;;;;;1.98;0.80;;;;;;;;;;5053755;28;20071;-46
2022/09/15 14:28:28;;;;;;;1.45;0.75;;;;;;;;;;5053668;28;20033;-53
2022/09/15 14:30:54;;;;;;;2.45;0.77;;;;;;;;;;5060978;28;20036;-47
2022/09/15 14:33:20;;;;;;;2.97;0.90;;;;;;;;;;5049498;28;20037;-45
2022/09/15 14:35:46;;;;;;;1.35;0.75;;;;;;;;;;5053170;28;20029;-46
2022/09/15 14:38:20;;;;;;;1.55;0.98;;;;;;;;;;5053872;28;20025;-46
2022/09/15 14:40:49;;;;;;;3.40;1.10;;;;;;;;;;5052979;28;20025;-45
2022/09/15 14:43:26;;;;;;;1.15;0.90;;;;;;;;;;5053850;28;20021;-45
2022/09/15 14:45:52;;;;;;;1.50;0.88;;;;;;;;;;5053589;28;20356;-45
2022/09/15 14:48:19;;;;;;;1.23;0.70;;;;;;;;;;5053699;28;20017;-45
2022/09/15 14:50:47;;;;;;;1.67;1.25;;;;;;;;;;5051962;28;20100;-46
2022/09/15 14:53:15;;;;;;;1.40;1.20;;;;;;;;;;5053782;28;20359;-46
2022/09/15 14:56:05;;;;;;;1.50;0.85;;;;;;;;;;5053082;28;20025;-49